PWSweather.com
Personal Weather Stations
Station Observations
KB2SBX
Sugarloaf, Sugarloaf, PA 18249

SugarloafSugarloaf, PA 18249

Lat: 41.0126685, Lon: -76.1082041

Elevation: 1030

Station Type: WS-2080

http://sugarloafpaweather.webng.com/weather.shtml

High Low Average
Temperature 76.2°F24.6°F 61.3°F16.3°F 66.1°F18.9°F
Dew Point 67.7°F19.8°F 56.7°F13.7°F 62.8°F17.1°F
Winds 8.0 mph WNW12.9 mph WNW Calm Calm 1.1 mph 1.8 mph
Wind Gusts 15.0 mph24.1 mph -- 3.5 mph5.6 mph
Humidity 99% 62% 90%
Pressure 29.82 in1009.80 in 29.53 in1000.00 in -
Precipitation 2.71 in68.80 in - -
Hour Temp Dew Point Humidity Winds Wind Gusts Pressure Precip Precip Rate Daily Precip Total
12:00 AM 65.8°F18.8°C 64.9°F18.3°C 97% Calm Calm -- 29.62 in1003.0 mb 0.00 in0.0 mm 0.00 in/hr0.0 mm/hr 0.17 in4.3 mm
12:05 AM 65.8°F18.8°C 64.9°F18.3°C 97% Calm Calm -- 29.62 in1003.0 mb 0.01 in0.3 mm 0.12 in/hr3.0 mm/hr 0.01 in0.3 mm
12:10 AM 65.6°F18.7°C 65.0°F18.3°C 98% Calm Calm 2.0 mph3.2 kmh 29.61 in1002.7 mb 0.01 in0.3 mm 0.00 in/hr0.0 mm/hr 0.01 in0.3 mm
12:15 AM 65.6°F18.7°C 65.0°F18.3°C 98% Calm Calm 2.0 mph3.2 kmh 29.62 in1003.0 mb 0.01 in0.3 mm 0.00 in/hr0.0 mm/hr 0.01 in0.3 mm
12:20 AM 65.6°F18.7°C 65.0°F18.3°C 98% Calm Calm 1.0 mph1.6 kmh 29.61 in1002.7 mb 0.01 in0.3 mm 0.00 in/hr0.0 mm/hr 0.01 in0.3 mm
12:25 AM 65.4°F18.6°C 64.8°F18.2°C 98% Calm Calm 1.0 mph1.6 kmh 29.62 in1003.0 mb 0.01 in0.3 mm 0.00 in/hr0.0 mm/hr 0.01 in0.3 mm
12:30 AM 65.4°F18.6°C 64.8°F18.2°C 98% Calm Calm 1.0 mph1.6 kmh 29.62 in1003.0 mb 0.01 in0.3 mm 0.00 in/hr0.0 mm/hr 0.01 in0.3 mm
12:35 AM 65.4°F18.6°C 64.8°F18.2°C 98% Calm Calm -- 29.62 in1003.0 mb 0.01 in0.3 mm 0.00 in/hr0.0 mm/hr 0.01 in0.3 mm
12:40 AM 65.4°F18.6°C 65.1°F18.4°C 99% Calm Calm -- 29.61 in1002.7 mb 0.01 in0.3 mm 0.00 in/hr0.0 mm/hr 0.01 in0.3 mm
12:45 AM 65.4°F18.6°C 65.1°F18.4°C 99% Calm Calm -- 29.61 in1002.7 mb 0.01 in0.3 mm 0.00 in/hr0.0 mm/hr 0.01 in0.3 mm
12:50 AM 65.3°F18.5°C 65.0°F18.3°C 99% Calm Calm -- 29.61 in1002.7 mb 0.01 in0.3 mm 0.00 in/hr0.0 mm/hr 0.01 in0.3 mm
12:55 AM 65.3°F18.5°C 65.0°F18.3°C 99% Calm Calm 1.0 mph1.6 kmh 29.61 in1002.7 mb 0.01 in0.3 mm 0.00 in/hr0.0 mm/hr 0.01 in0.3 mm
01:00 AM 65.1°F18.4°C 64.8°F18.2°C 99% Calm Calm 1.0 mph1.6 kmh 29.60 in1002.4 mb 0.01 in0.3 mm 0.00 in/hr0.0 mm/hr 0.01 in0.3 mm
01:05 AM 65.1°F18.4°C 64.8°F18.2°C 99% Calm Calm 1.0 mph1.6 kmh 29.59 in1002.0 mb 0.00 in0.0 mm 0.00 in/hr0.0 mm/hr 0.01 in0.3 mm
01:10 AM 65.1°F18.4°C 64.8°F18.2°C 99% Calm Calm 1.0 mph1.6 kmh 29.60 in1002.4 mb 0.00 in0.0 mm 0.00 in/hr0.0 mm/hr 0.01 in0.3 mm
01:15 AM 65.1°F18.4°C 64.8°F18.2°C 99% Calm Calm 1.0 mph1.6 kmh 29.60 in1002.4 mb 0.00 in0.0 mm 0.00 in/hr0.0 mm/hr 0.01 in0.3 mm
01:20 AM 64.9°F18.3°C 64.6°F18.1°C 99% Calm Calm 2.0 mph3.2 kmh 29.60 in1002.4 mb 0.00 in0.0 mm 0.00 in/hr0.0 mm/hr 0.01 in0.3 mm
01:25 AM 64.9°F18.3°C 64.6°F18.1°C 99% Calm Calm 2.0 mph3.2 kmh 29.60 in1002.4 mb 0.00 in0.0 mm 0.00 in/hr0.0 mm/hr 0.01 in0.3 mm
01:30 AM 64.9°F18.3°C 64.6°F18.1°C 99% Calm Calm 1.0 mph1.6 kmh 29.59 in1002.0 mb 0.00 in0.0 mm 0.00 in/hr0.0 mm/hr 0.01 in0.3 mm
01:35 AM 64.7°F18.2°C 64.4°F18.0°C 99% 1.0 mph SSW1.6 kmh SSW 2.0 mph3.2 kmh 29.59 in1002.0 mb 0.00 in0.0 mm 0.00 in/hr0.0 mm/hr 0.01 in0.3 mm
01:40 AM 64.7°F18.2°C 64.4°F18.0°C 99% Calm Calm 1.0 mph1.6 kmh 29.59 in1002.0 mb 0.00 in0.0 mm 0.00 in/hr0.0 mm/hr 0.01 in0.3 mm
01:45 AM 64.7°F18.2°C 64.4°F18.0°C 99% Calm Calm 2.0 mph3.2 kmh 29.58 in1001.7 mb 0.00 in0.0 mm 0.00 in/hr0.0 mm/hr 0.01 in0.3 mm
01:50 AM 64.5°F18.1°C 64.2°F17.9°C 99% Calm Calm 1.0 mph1.6 kmh 29.58 in1001.7 mb 0.00 in0.0 mm 0.00 in/hr0.0 mm/hr 0.01 in0.3 mm
01:55 AM 64.4°F18.0°C 64.1°F17.8°C 99% Calm Calm 1.0 mph1.6 kmh 29.58 in1001.7 mb 0.00 in0.0 mm 0.00 in/hr0.0 mm/hr 0.01 in0.3 mm
02:00 AM 64.4°F18.0°C 64.1°F17.8°C 99% 1.0 mph NNW1.6 kmh NNW 2.0 mph3.2 kmh 29.57 in1001.4 mb 0.00 in0.0 mm 0.00 in/hr0.0 mm/hr 0.01 in0.3 mm
02:05 AM 64.4°F18.0°C 64.1°F17.8°C 99% Calm Calm 1.0 mph1.6 kmh 29.57 in1001.4 mb 0.00 in0.0 mm 0.00 in/hr0.0 mm/hr 0.01 in0.3 mm
02:10 AM 64.5°F18.1°C 64.2°F17.9°C 99% Calm Calm 1.0 mph1.6 kmh 29.57 in1001.4 mb 0.00 in0.0 mm 0.00 in/hr0.0 mm/hr 0.01 in0.3 mm
02:15 AM 64.5°F18.1°C 64.2°F17.9°C 99% Calm Calm -- 29.57 in1001.4 mb 0.00 in0.0 mm 0.00 in/hr0.0 mm/hr 0.01 in0.3 mm
02:20 AM 64.5°F18.1°C 64.2°F17.9°C 99% Calm Calm -- 29.56 in1001.0 mb 0.00 in0.0 mm 0.00 in/hr0.0 mm/hr 0.01 in0.3 mm
02:25 AM 64.5°F18.1°C 64.2°F17.9°C 99% Calm Calm 1.0 mph1.6 kmh 29.56 in1001.0 mb 0.00 in0.0 mm 0.00 in/hr0.0 mm/hr 0.01 in0.3 mm
02:30 AM 64.5°F18.1°C 64.2°F17.9°C 99% Calm Calm -- 29.57 in1001.4 mb 0.00 in0.0 mm 0.00 in/hr0.0 mm/hr 0.01 in0.3 mm
02:35 AM 64.5°F18.1°C 64.2°F17.9°C 99% Calm Calm -- 29.57 in1001.4 mb 0.00 in0.0 mm 0.00 in/hr0.0 mm/hr 0.01 in0.3 mm
02:40 AM 64.5°F18.1°C 64.2°F17.9°C 99% Calm Calm -- 29.57 in1001.4 mb 0.00 in0.0 mm 0.00 in/hr0.0 mm/hr 0.01 in0.3 mm
02:45 AM 64.5°F18.1°C 64.2°F17.9°C 99% Calm Calm -- 29.56 in1001.0 mb 0.00 in0.0 mm 0.00 in/hr0.0 mm/hr 0.01 in0.3 mm
02:50 AM 64.5°F18.1°C 64.2°F17.9°C 99% Calm Calm -- 29.57 in1001.4 mb 0.00 in0.0 mm 0.00 in/hr0.0 mm/hr 0.01 in0.3 mm
02:55 AM 64.5°F18.1°C 64.2°F17.9°C 99% Calm Calm 1.0 mph1.6 kmh 29.57 in1001.4 mb 0.00 in0.0 mm 0.00 in/hr0.0 mm/hr 0.01 in0.3 mm
03:00 AM 64.5°F18.1°C 64.2°F17.9°C 99% Calm Calm -- 29.57 in1001.4 mb 0.00 in0.0 mm 0.00 in/hr0.0 mm/hr 0.01 in0.3 mm
03:05 AM 64.5°F18.1°C 64.2°F17.9°C 99% Calm Calm 1.0 mph1.6 kmh 29.57 in1001.4 mb 0.00 in0.0 mm 0.00 in/hr0.0 mm/hr 0.01 in0.3 mm
03:10 AM 64.5°F18.1°C 64.2°F17.9°C 99% Calm Calm 1.0 mph1.6 kmh 29.57 in1001.4 mb 0.00 in0.0 mm 0.00 in/hr0.0 mm/hr 0.01 in0.3 mm
03:15 AM 64.5°F18.1°C 64.2°F17.9°C 99% Calm Calm -- 29.57 in1001.4 mb 0.00 in0.0 mm 0.00 in/hr0.0 mm/hr 0.01 in0.3 mm
03:20 AM 64.5°F18.1°C 64.2°F17.9°C 99% Calm Calm -- 29.57 in1001.4 mb 0.00 in0.0 mm 0.00 in/hr0.0 mm/hr 0.01 in0.3 mm
03:25 AM 64.5°F18.1°C 64.2°F17.9°C 99% Calm Calm -- 29.57 in1001.4 mb 0.00 in0.0 mm 0.00 in/hr0.0 mm/hr 0.01 in0.3 mm
03:30 AM 64.5°F18.1°C 64.2°F17.9°C 99% Calm Calm -- 29.57 in1001.4 mb 0.00 in0.0 mm 0.00 in/hr0.0 mm/hr 0.01 in0.3 mm
03:35 AM 64.5°F18.1°C 64.2°F17.9°C 99% Calm Calm -- 29.57 in1001.4 mb 0.00 in0.0 mm 0.00 in/hr0.0 mm/hr 0.01 in0.3 mm
03:40 AM 64.5°F18.1°C 64.2°F17.9°C 99% Calm Calm -- 29.57 in1001.4 mb 0.00 in0.0 mm 0.00 in/hr0.0 mm/hr 0.01 in0.3 mm
03:45 AM 64.5°F18.1°C 64.2°F17.9°C 99% Calm Calm 2.0 mph3.2 kmh 29.57 in1001.4 mb 0.00 in0.0 mm 0.00 in/hr0.0 mm/hr 0.01 in0.3 mm
03:50 AM 64.5°F18.1°C 64.2°F17.9°C 99% Calm Calm 1.0 mph1.6 kmh 29.57 in1001.4 mb 0.00 in0.0 mm 0.00 in/hr0.0 mm/hr 0.01 in0.3 mm
03:55 AM 64.5°F18.1°C 64.2°F17.9°C 99% 1.0 mph SSW1.6 kmh SSW 2.0 mph3.2 kmh 29.57 in1001.4 mb 0.00 in0.0 mm 0.00 in/hr0.0 mm/hr 0.01 in0.3 mm
04:00 AM 64.5°F18.1°C 64.2°F17.9°C 99% Calm Calm 1.0 mph1.6 kmh 29.57 in1001.4 mb 0.00 in0.0 mm 0.00 in/hr0.0 mm/hr 0.01 in0.3 mm
04:05 AM 64.5°F18.1°C 64.2°F17.9°C 99% Calm Calm -- 29.56 in1001.0 mb 0.00 in0.0 mm 0.00 in/hr0.0 mm/hr 0.01 in0.3 mm
04:10 AM 64.4°F18.0°C 64.1°F17.8°C 99% Calm Calm -- 29.55 in1000.7 mb 0.00 in0.0 mm 0.00 in/hr0.0 mm/hr 0.01 in0.3 mm
04:15 AM 64.2°F17.9°C 63.3°F17.4°C 97% Calm Calm -- 29.55 in1000.7 mb 0.00 in0.0 mm 0.00 in/hr0.0 mm/hr 0.01 in0.3 mm
04:20 AM 64.2°F17.9°C 63.3°F17.4°C 97% Calm Calm -- 29.54 in1000.3 mb 0.00 in0.0 mm 0.00 in/hr0.0 mm/hr 0.01 in0.3 mm
04:25 AM 64.2°F17.9°C 63.3°F17.4°C 97% Calm Calm -- 29.55 in1000.7 mb 0.00 in0.0 mm 0.00 in/hr0.0 mm/hr 0.01 in0.3 mm
04:30 AM 64.2°F17.9°C 63.3°F17.4°C 97% Calm Calm 1.0 mph1.6 kmh 29.53 in1000.0 mb 0.01 in0.3 mm 0.12 in/hr3.0 mm/hr 0.02 in0.5 mm
04:35 AM 64.2°F17.9°C 63.3°F17.4°C 97% Calm Calm 2.0 mph3.2 kmh 29.53 in1000.0 mb 0.02 in0.5 mm 0.12 in/hr3.0 mm/hr 0.04 in1.0 mm
04:40 AM 64.2°F17.9°C 63.3°F17.4°C 97% Calm Calm 1.0 mph1.6 kmh 29.53 in1000.0 mb 0.02 in0.5 mm 0.00 in/hr0.0 mm/hr 0.04 in1.0 mm
04:45 AM 64.2°F17.9°C 63.3°F17.4°C 97% 1.0 mph SSW1.6 kmh SSW 2.0 mph3.2 kmh 29.53 in1000.0 mb 0.04 in1.0 mm 0.24 in/hr6.1 mm/hr 0.05 in1.3 mm
04:50 AM 64.2°F17.9°C 63.3°F17.4°C 97% Calm Calm 1.0 mph1.6 kmh 29.53 in1000.0 mb 0.04 in1.0 mm 0.00 in/hr0.0 mm/hr 0.05 in1.3 mm
04:55 AM 64.2°F17.9°C 63.3°F17.4°C 97% Calm Calm 1.0 mph1.6 kmh 29.53 in1000.0 mb 0.04 in1.0 mm 0.00 in/hr0.0 mm/hr 0.05 in1.3 mm
05:00 AM 64.0°F17.8°C 63.1°F17.3°C 97% Calm Calm -- 29.53 in1000.0 mb 0.04 in1.0 mm 0.00 in/hr0.0 mm/hr 0.05 in1.3 mm
05:05 AM 64.0°F17.8°C 63.1°F17.3°C 97% Calm Calm -- 29.53 in1000.0 mb 0.04 in1.0 mm 0.00 in/hr0.0 mm/hr 0.05 in1.3 mm
05:10 AM 63.8°F17.7°C 62.9°F17.2°C 97% Calm Calm 1.0 mph1.6 kmh 29.53 in1000.0 mb 0.04 in1.0 mm 0.00 in/hr0.0 mm/hr 0.05 in1.3 mm
05:15 AM 63.8°F17.7°C 62.9°F17.2°C 97% Calm Calm -- 29.54 in1000.3 mb 0.04 in1.0 mm 0.00 in/hr0.0 mm/hr 0.05 in1.3 mm
05:20 AM 63.8°F17.7°C 62.9°F17.2°C 97% Calm Calm -- 29.53 in1000.0 mb 0.04 in1.0 mm 0.00 in/hr0.0 mm/hr 0.05 in1.3 mm
05:25 AM 63.8°F17.7°C 62.9°F17.2°C 97% Calm Calm -- 29.53 in1000.0 mb 0.04 in1.0 mm 0.00 in/hr0.0 mm/hr 0.05 in1.3 mm
05:30 AM 63.8°F17.7°C 62.9°F17.2°C 97% Calm Calm 1.0 mph1.6 kmh 29.54 in1000.3 mb 0.02 in0.5 mm 0.00 in/hr0.0 mm/hr 0.05 in1.3 mm
05:35 AM 63.8°F17.7°C 62.9°F17.2°C 97% Calm Calm -- 29.53 in1000.0 mb 0.01 in0.3 mm 0.00 in/hr0.0 mm/hr 0.05 in1.3 mm
05:40 AM 63.8°F17.7°C 62.9°F17.2°C 97% Calm Calm -- 29.54 in1000.3 mb 0.01 in0.3 mm 0.00 in/hr0.0 mm/hr 0.05 in1.3 mm
05:45 AM 63.8°F17.7°C 62.9°F17.2°C 97% Calm Calm -- 29.54 in1000.3 mb 0.00 in0.0 mm 0.00 in/hr0.0 mm/hr 0.05 in1.3 mm
05:50 AM 63.6°F17.6°C 62.8°F17.1°C 97% Calm Calm -- 29.54 in1000.3 mb 0.00 in0.0 mm 0.00 in/hr0.0 mm/hr 0.05 in1.3 mm
05:55 AM 63.6°F17.6°C 62.8°F17.1°C 97% Calm Calm -- 29.54 in1000.3 mb 0.00 in0.0 mm 0.00 in/hr0.0 mm/hr 0.05 in1.3 mm
06:00 AM 63.6°F17.6°C 62.8°F17.1°C 97% Calm Calm -- 29.54 in1000.3 mb 0.00 in0.0 mm 0.00 in/hr0.0 mm/hr 0.05 in1.3 mm
06:05 AM 63.6°F17.6°C 62.8°F17.1°C 97% Calm Calm -- 29.54 in1000.3 mb 0.00 in0.0 mm 0.00 in/hr0.0 mm/hr 0.05 in1.3 mm
06:10 AM 63.6°F17.6°C 62.8°F17.1°C 97% Calm Calm -- 29.55 in1000.7 mb 0.00 in0.0 mm 0.00 in/hr0.0 mm/hr 0.05 in1.3 mm
06:15 AM 63.8°F17.7°C 62.9°F17.2°C 97% Calm Calm -- 29.55 in1000.7 mb 0.00 in0.0 mm 0.00 in/hr0.0 mm/hr 0.05 in1.3 mm
06:20 AM 63.8°F17.7°C 62.9°F17.2°C 97% Calm Calm -- 29.55 in1000.7 mb 0.00 in0.0 mm 0.00 in/hr0.0 mm/hr 0.05 in1.3 mm
06:25 AM 63.8°F17.7°C 62.9°F17.2°C 97% Calm Calm -- 29.55 in1000.7 mb 0.00 in0.0 mm 0.00 in/hr0.0 mm/hr 0.05 in1.3 mm
06:30 AM 64.0°F17.8°C 63.1°F17.3°C 97% Calm Calm 2.0 mph3.2 kmh 29.55 in1000.7 mb 0.00 in0.0 mm 0.00 in/hr0.0 mm/hr 0.05 in1.3 mm
06:35 AM 64.0°F17.8°C 63.1°F17.3°C 97% Calm Calm 2.0 mph3.2 kmh 29.55 in1000.7 mb 0.00 in0.0 mm 0.00 in/hr0.0 mm/hr 0.05 in1.3 mm
06:40 AM 64.0°F17.8°C 63.1°F17.3°C 97% Calm Calm 1.0 mph1.6 kmh 29.56 in1001.0 mb 0.00 in0.0 mm 0.00 in/hr0.0 mm/hr 0.05 in1.3 mm
06:45 AM 64.0°F17.8°C 63.1°F17.3°C 97% Calm Calm 1.0 mph1.6 kmh 29.56 in1001.0 mb 0.00 in0.0 mm 0.00 in/hr0.0 mm/hr 0.05 in1.3 mm
06:50 AM 64.2°F17.9°C 63.3°F17.4°C 97% Calm Calm 1.0 mph1.6 kmh 29.55 in1000.7 mb 0.00 in0.0 mm 0.00 in/hr0.0 mm/hr 0.05 in1.3 mm
06:55 AM 64.2°F17.9°C 63.3°F17.4°C 97% 2.0 mph SSE3.2 kmh SSE 3.0 mph4.8 kmh 29.56 in1001.0 mb 0.00 in0.0 mm 0.00 in/hr0.0 mm/hr 0.05 in1.3 mm
07:00 AM 64.2°F17.9°C 63.3°F17.4°C 97% Calm Calm 2.0 mph3.2 kmh 29.56 in1001.0 mb 0.00 in0.0 mm 0.00 in/hr0.0 mm/hr 0.05 in1.3 mm
07:05 AM 64.2°F17.9°C 63.3°F17.4°C 97% Calm Calm 2.0 mph3.2 kmh 29.55 in1000.7 mb 0.00 in0.0 mm 0.00 in/hr0.0 mm/hr 0.05 in1.3 mm
07:10 AM 64.2°F17.9°C 63.3°F17.4°C 97% Calm Calm 3.0 mph4.8 kmh 29.55 in1000.7 mb 0.00 in0.0 mm 0.00 in/hr0.0 mm/hr 0.05 in1.3 mm
07:15 AM 64.2°F17.9°C 63.3°F17.4°C 97% Calm Calm 2.0 mph3.2 kmh 29.55 in1000.7 mb 0.00 in0.0 mm 0.00 in/hr0.0 mm/hr 0.05 in1.3 mm
07:20 AM 64.2°F17.9°C 63.3°F17.4°C 97% 2.0 mph ESE3.2 kmh ESE 3.0 mph4.8 kmh 29.55 in1000.7 mb 0.00 in0.0 mm 0.00 in/hr0.0 mm/hr 0.05 in1.3 mm
07:25 AM 64.2°F17.9°C 63.3°F17.4°C 97% Calm Calm 2.0 mph3.2 kmh 29.56 in1001.0 mb 0.00 in0.0 mm 0.00 in/hr0.0 mm/hr 0.05 in1.3 mm
07:30 AM 64.2°F17.9°C 63.3°F17.4°C 97% Calm Calm -- 29.56 in1001.0 mb 0.00 in0.0 mm 0.00 in/hr0.0 mm/hr 0.05 in1.3 mm
07:35 AM 64.2°F17.9°C 63.3°F17.4°C 97% Calm Calm 2.0 mph3.2 kmh 29.56 in1001.0 mb 0.00 in0.0 mm 0.00 in/hr0.0 mm/hr 0.05 in1.3 mm
07:40 AM 64.4°F18.0°C 64.1°F17.8°C 99% Calm Calm 1.0 mph1.6 kmh 29.56 in1001.0 mb 0.00 in0.0 mm 0.00 in/hr0.0 mm/hr 0.05 in1.3 mm
07:45 AM 64.5°F18.1°C 64.2°F17.9°C 99% Calm Calm 2.0 mph3.2 kmh 29.56 in1001.0 mb 0.00 in0.0 mm 0.00 in/hr0.0 mm/hr 0.05 in1.3 mm
07:50 AM 64.5°F18.1°C 64.2°F17.9°C 99% 1.0 mph SSE1.6 kmh SSE 2.0 mph3.2 kmh 29.56 in1001.0 mb 0.00 in0.0 mm 0.00 in/hr0.0 mm/hr 0.05 in1.3 mm
07:55 AM 64.5°F18.1°C 64.2°F17.9°C 99% Calm Calm 2.0 mph3.2 kmh 29.56 in1001.0 mb 0.00 in0.0 mm 0.00 in/hr0.0 mm/hr 0.05 in1.3 mm
08:00 AM 64.5°F18.1°C 64.2°F17.9°C 99% 1.0 mph WSW1.6 kmh WSW 2.0 mph3.2 kmh 29.56 in1001.0 mb 0.00 in0.0 mm 0.00 in/hr0.0 mm/hr 0.05 in1.3 mm
08:05 AM 64.5°F18.1°C 64.2°F17.9°C 99% 1.0 mph WSW1.6 kmh WSW 2.0 mph3.2 kmh 29.56 in1001.0 mb 0.00 in0.0 mm 0.00 in/hr0.0 mm/hr 0.05 in1.3 mm
08:10 AM 64.7°F18.2°C 64.4°F18.0°C 99% Calm Calm 2.0 mph3.2 kmh 29.56 in1001.0 mb 0.00 in0.0 mm 0.00 in/hr0.0 mm/hr 0.05 in1.3 mm
08:15 AM 65.1°F18.4°C 64.8°F18.2°C 99% 1.0 mph WNW1.6 kmh WNW 2.0 mph3.2 kmh 29.56 in1001.0 mb 0.00 in0.0 mm 0.00 in/hr0.0 mm/hr 0.05 in1.3 mm
08:20 AM 65.1°F18.4°C 64.8°F18.2°C 99% Calm Calm 4.0 mph6.4 kmh 29.57 in1001.4 mb 0.00 in0.0 mm 0.00 in/hr0.0 mm/hr 0.05 in1.3 mm
08:25 AM 65.1°F18.4°C 64.8°F18.2°C 99% Calm Calm 3.0 mph4.8 kmh 29.57 in1001.4 mb 0.00 in0.0 mm 0.00 in/hr0.0 mm/hr 0.05 in1.3 mm
08:30 AM 65.1°F18.4°C 64.8°F18.2°C 99% Calm Calm 4.0 mph6.4 kmh 29.57 in1001.4 mb 0.00 in0.0 mm 0.00 in/hr0.0 mm/hr 0.05 in1.3 mm
08:35 AM 65.3°F18.5°C 65.0°F18.3°C 99% Calm Calm 2.0 mph3.2 kmh 29.57 in1001.4 mb 0.00 in0.0 mm 0.00 in/hr0.0 mm/hr 0.05 in1.3 mm
08:40 AM 65.3°F18.5°C 65.0°F18.3°C 99% Calm Calm 3.0 mph4.8 kmh 29.57 in1001.4 mb 0.00 in0.0 mm 0.00 in/hr0.0 mm/hr 0.05 in1.3 mm
08:45 AM 65.3°F18.5°C 65.0°F18.3°C 99% Calm Calm 2.0 mph3.2 kmh 29.57 in1001.4 mb 0.00 in0.0 mm 0.00 in/hr0.0 mm/hr 0.05 in1.3 mm
08:50 AM 65.4°F18.6°C 65.1°F18.4°C 99% 1.0 mph WNW1.6 kmh WNW 2.0 mph3.2 kmh 29.57 in1001.4 mb 0.00 in0.0 mm 0.00 in/hr0.0 mm/hr 0.05 in1.3 mm
08:55 AM 65.4°F18.6°C 65.1°F18.4°C 99% 1.0 mph SSW1.6 kmh SSW 3.0 mph4.8 kmh 29.57 in1001.4 mb 0.00 in0.0 mm 0.00 in/hr0.0 mm/hr 0.05 in1.3 mm
09:00 AM 65.6°F18.7°C 65.3°F18.5°C 99% 1.0 mph SSW1.6 kmh SSW 2.0 mph3.2 kmh 29.57 in1001.4 mb 0.00 in0.0 mm 0.00 in/hr0.0 mm/hr 0.05 in1.3 mm
09:05 AM 65.6°F18.7°C 65.3°F18.5°C 99% Calm Calm 4.0 mph6.4 kmh 29.57 in1001.4 mb 0.00 in0.0 mm 0.00 in/hr0.0 mm/hr 0.05 in1.3 mm
09:10 AM 65.6°F18.7°C 65.3°F18.5°C 99% 1.0 mph NW1.6 kmh NW 3.0 mph4.8 kmh 29.58 in1001.7 mb 0.00 in0.0 mm 0.00 in/hr0.0 mm/hr 0.05 in1.3 mm
09:15 AM 65.6°F18.7°C 65.3°F18.5°C 99% 1.0 mph NW1.6 kmh NW 2.0 mph3.2 kmh 29.57 in1001.4 mb 0.00 in0.0 mm 0.00 in/hr0.0 mm/hr 0.05 in1.3 mm
09:20 AM 65.6°F18.7°C 65.3°F18.5°C 99% 2.0 mph WSW3.2 kmh WSW 7.0 mph11.3 kmh 29.57 in1001.4 mb 0.00 in0.0 mm 0.00 in/hr0.0 mm/hr 0.05 in1.3 mm
09:25 AM 65.6°F18.7°C 65.3°F18.5°C 99% 2.0 mph SW3.2 kmh SW 6.0 mph9.7 kmh 29.58 in1001.7 mb 0.00 in0.0 mm 0.00 in/hr0.0 mm/hr 0.05 in1.3 mm
09:30 AM 66.0°F18.9°C 65.7°F18.7°C 99% 1.0 mph SSE1.6 kmh SSE 4.0 mph6.4 kmh 29.58 in1001.7 mb 0.00 in0.0 mm 0.00 in/hr0.0 mm/hr 0.05 in1.3 mm
09:35 AM 66.2°F19.0°C 65.9°F18.8°C 99% 1.0 mph SSW1.6 kmh SSW 4.0 mph6.4 kmh 29.58 in1001.7 mb 0.00 in0.0 mm 0.00 in/hr0.0 mm/hr 0.05 in1.3 mm
09:40 AM 66.7°F19.3°C 66.4°F19.1°C 99% 1.0 mph ESE1.6 kmh ESE 2.0 mph3.2 kmh 29.57 in1001.4 mb 0.00 in0.0 mm 0.00 in/hr0.0 mm/hr 0.05 in1.3 mm
09:45 AM 66.9°F19.4°C 66.6°F19.2°C 99% 2.0 mph SSE3.2 kmh SSE 5.0 mph8.0 kmh 29.57 in1001.4 mb 0.00 in0.0 mm 0.00 in/hr0.0 mm/hr 0.05 in1.3 mm
09:50 AM 67.2°F19.6°C 66.9°F19.4°C 99% 1.0 mph WSW1.6 kmh WSW 4.0 mph6.4 kmh 29.57 in1001.4 mb 0.00 in0.0 mm 0.00 in/hr0.0 mm/hr 0.05 in1.3 mm
09:55 AM 67.2°F19.6°C 66.9°F19.4°C 99% 1.0 mph ENE1.6 kmh ENE 7.0 mph11.3 kmh 29.58 in1001.7 mb 0.00 in0.0 mm 0.00 in/hr0.0 mm/hr 0.05 in1.3 mm
10:00 AM 67.4°F19.7°C 67.1°F19.5°C 99% 2.0 mph SSE3.2 kmh SSE 4.0 mph6.4 kmh 29.57 in1001.4 mb 0.00 in0.0 mm 0.00 in/hr0.0 mm/hr 0.05 in1.3 mm
10:05 AM 67.4°F19.7°C 67.1°F19.5°C 99% 2.0 mph SSE3.2 kmh SSE 3.0 mph4.8 kmh 29.57 in1001.4 mb 0.00 in0.0 mm 0.00 in/hr0.0 mm/hr 0.05 in1.3 mm
10:10 AM 67.8°F19.9°C 67.5°F19.7°C 99% 1.0 mph WNW1.6 kmh WNW 3.0 mph4.8 kmh 29.57 in1001.4 mb 0.00 in0.0 mm 0.00 in/hr0.0 mm/hr 0.05 in1.3 mm
10:15 AM 68.0°F20.0°C 67.7°F19.8°C 99% 4.0 mph SSE6.4 kmh SSE 7.0 mph11.3 kmh 29.57 in1001.4 mb 0.00 in0.0 mm 0.00 in/hr0.0 mm/hr 0.05 in1.3 mm
10:20 AM 68.0°F20.0°C 67.4°F19.7°C 98% Calm Calm 5.0 mph8.0 kmh 29.57 in1001.4 mb 0.00 in0.0 mm 0.00 in/hr0.0 mm/hr 0.05 in1.3 mm
10:25 AM 68.1°F20.1°C 67.2°F19.6°C 97% 2.0 mph WNW3.2 kmh WNW 6.0 mph9.7 kmh 29.57 in1001.4 mb 0.00 in0.0 mm 0.00 in/hr0.0 mm/hr 0.05 in1.3 mm
10:30 AM 68.5°F20.3°C 67.3°F19.6°C 96% 2.0 mph NNW3.2 kmh NNW 4.0 mph6.4 kmh 29.57 in1001.4 mb 0.00 in0.0 mm 0.00 in/hr0.0 mm/hr 0.05 in1.3 mm
10:35 AM 68.3°F20.2°C 66.5°F19.2°C 94% 3.0 mph WSW4.8 kmh WSW 11.0 mph17.7 kmh 29.57 in1001.4 mb 0.00 in0.0 mm 0.00 in/hr0.0 mm/hr 0.05 in1.3 mm
10:40 AM 68.0°F20.0°C 65.8°F18.8°C 93% 2.0 mph NNW3.2 kmh NNW 4.0 mph6.4 kmh 29.57 in1001.4 mb 0.00 in0.0 mm 0.00 in/hr0.0 mm/hr 0.05 in1.3 mm
10:45 AM 68.0°F20.0°C 65.5°F18.6°C 92% 1.0 mph ENE1.6 kmh ENE 4.0 mph6.4 kmh 29.57 in1001.4 mb 0.00 in0.0 mm 0.00 in/hr0.0 mm/hr 0.05 in1.3 mm
10:50 AM 68.0°F20.0°C 65.5°F18.6°C 92% 2.0 mph NNE3.2 kmh NNE 9.0 mph14.5 kmh 29.57 in1001.4 mb 0.00 in0.0 mm 0.00 in/hr0.0 mm/hr 0.05 in1.3 mm
10:55 AM 68.1°F20.1°C 65.4°F18.6°C 91% 2.0 mph ENE3.2 kmh ENE 8.0 mph12.9 kmh 29.57 in1001.4 mb 0.00 in0.0 mm 0.00 in/hr0.0 mm/hr 0.05 in1.3 mm
11:00 AM 68.3°F20.2°C 65.6°F18.7°C 91% 2.0 mph ENE3.2 kmh ENE 5.0 mph8.0 kmh 29.57 in1001.4 mb 0.00 in0.0 mm 0.00 in/hr0.0 mm/hr 0.05 in1.3 mm
11:05 AM 68.5°F20.3°C 65.4°F18.6°C 90% 1.0 mph WSW1.6 kmh WSW 7.0 mph11.3 kmh 29.57 in1001.4 mb 0.00 in0.0 mm 0.00 in/hr0.0 mm/hr 0.05 in1.3 mm
11:10 AM 68.7°F20.4°C 65.6°F18.7°C 90% 1.0 mph SSW1.6 kmh SSW 3.0 mph4.8 kmh 29.57 in1001.4 mb 0.00 in0.0 mm 0.00 in/hr0.0 mm/hr 0.05 in1.3 mm
11:15 AM 68.7°F20.4°C 65.6°F18.7°C 90% 2.0 mph NNE3.2 kmh NNE 4.0 mph6.4 kmh 29.57 in1001.4 mb 0.00 in0.0 mm 0.00 in/hr0.0 mm/hr 0.05 in1.3 mm
11:20 AM 68.7°F20.4°C 65.6°F18.7°C 90% 2.0 mph SSE3.2 kmh SSE 4.0 mph6.4 kmh 29.57 in1001.4 mb 0.00 in0.0 mm 0.00 in/hr0.0 mm/hr 0.05 in1.3 mm
11:25 AM 68.5°F20.3°C 65.4°F18.6°C 90% 2.0 mph ESE3.2 kmh ESE 7.0 mph11.3 kmh 29.58 in1001.7 mb 0.00 in0.0 mm 0.00 in/hr0.0 mm/hr 0.05 in1.3 mm
11:30 AM 68.3°F20.2°C 64.9°F18.3°C 89% 2.0 mph WSW3.2 kmh WSW 4.0 mph6.4 kmh 29.58 in1001.7 mb 0.00 in0.0 mm 0.00 in/hr0.0 mm/hr 0.05 in1.3 mm
11:35 AM 68.1°F20.1°C 64.4°F18.0°C 88% Calm Calm 4.0 mph6.4 kmh 29.58 in1001.7 mb 0.00 in0.0 mm 0.00 in/hr0.0 mm/hr 0.05 in1.3 mm
11:40 AM 68.0°F20.0°C 64.3°F17.9°C 88% 3.0 mph WSW4.8 kmh WSW 5.0 mph8.0 kmh 29.58 in1001.7 mb 0.00 in0.0 mm 0.00 in/hr0.0 mm/hr 0.05 in1.3 mm
11:45 AM 68.1°F20.1°C 64.4°F18.0°C 88% 1.0 mph ENE1.6 kmh ENE 6.0 mph9.7 kmh 29.58 in1001.7 mb 0.00 in0.0 mm 0.00 in/hr0.0 mm/hr 0.05 in1.3 mm
11:50 AM 68.5°F20.3°C 65.1°F18.4°C 89% 1.0 mph ENE1.6 kmh ENE 6.0 mph9.7 kmh 29.58 in1001.7 mb 0.00 in0.0 mm 0.00 in/hr0.0 mm/hr 0.05 in1.3 mm
11:55 AM 69.0°F20.6°C 65.3°F18.5°C 88% 2.0 mph NNE3.2 kmh NNE 8.0 mph12.9 kmh 29.58 in1001.7 mb 0.00 in0.0 mm 0.00 in/hr0.0 mm/hr 0.05 in1.3 mm
12:00 PM 69.9°F21.1°C 65.5°F18.6°C 86% 1.0 mph ESE1.6 kmh ESE 5.0 mph8.0 kmh 29.57 in1001.4 mb 0.00 in0.0 mm 0.00 in/hr0.0 mm/hr 0.05 in1.3 mm
12:05 PM 69.9°F21.1°C 65.5°F18.6°C 86% 1.0 mph ESE1.6 kmh ESE 2.0 mph3.2 kmh 29.57 in1001.4 mb 0.00 in0.0 mm 0.00 in/hr0.0 mm/hr 0.05 in1.3 mm
12:10 PM 70.5°F21.4°C 64.7°F18.2°C 82% 4.0 mph WNW6.4 kmh WNW 6.0 mph9.7 kmh 29.57 in1001.4 mb 0.00 in0.0 mm 0.00 in/hr0.0 mm/hr 0.05 in1.3 mm
12:15 PM 70.3°F21.3°C 64.2°F17.9°C 81% 2.0 mph SW3.2 kmh SW 4.0 mph6.4 kmh 29.57 in1001.4 mb 0.00 in0.0 mm 0.00 in/hr0.0 mm/hr 0.05 in1.3 mm
12:20 PM 69.8°F21.0°C 63.6°F17.6°C 81% 3.0 mph ESE4.8 kmh ESE 6.0 mph9.7 kmh 29.57 in1001.4 mb 0.00 in0.0 mm 0.00 in/hr0.0 mm/hr 0.05 in1.3 mm
12:25 PM 69.6°F20.9°C 63.8°F17.7°C 82% 1.0 mph WSW1.6 kmh WSW 4.0 mph6.4 kmh 29.58 in1001.7 mb 0.00 in0.0 mm 0.00 in/hr0.0 mm/hr 0.05 in1.3 mm
12:30 PM 69.8°F21.0°C 63.6°F17.6°C 81% 1.0 mph SSE1.6 kmh SSE 6.0 mph9.7 kmh 29.57 in1001.4 mb 0.00 in0.0 mm 0.00 in/hr0.0 mm/hr 0.05 in1.3 mm
12:35 PM 70.1°F21.2°C 64.0°F17.8°C 81% Calm Calm 3.0 mph4.8 kmh 29.57 in1001.4 mb 0.00 in0.0 mm 0.00 in/hr0.0 mm/hr 0.05 in1.3 mm
12:40 PM 70.7°F21.5°C 64.5°F18.1°C 81% 4.0 mph ESE6.4 kmh ESE 9.0 mph14.5 kmh 29.57 in1001.4 mb 0.00 in0.0 mm 0.00 in/hr0.0 mm/hr 0.05 in1.3 mm
12:45 PM 71.0°F21.7°C 64.2°F17.9°C 79% 2.0 mph ENE3.2 kmh ENE 9.0 mph14.5 kmh 29.57 in1001.4 mb 0.00 in0.0 mm 0.00 in/hr0.0 mm/hr 0.05 in1.3 mm
12:50 PM 71.2°F21.8°C 64.0°F17.8°C 78% 2.0 mph SSW3.2 kmh SSW 6.0 mph9.7 kmh 29.57 in1001.4 mb 0.00 in0.0 mm 0.00 in/hr0.0 mm/hr 0.05 in1.3 mm
12:55 PM 71.2°F21.8°C 64.3°F17.9°C 79% 1.0 mph ENE1.6 kmh ENE 2.0 mph3.2 kmh 29.57 in1001.4 mb 0.00 in0.0 mm 0.00 in/hr0.0 mm/hr 0.05 in1.3 mm
01:00 PM 71.0°F21.7°C 63.8°F17.7°C 78% Calm Calm 4.0 mph6.4 kmh 29.57 in1001.4 mb 0.00 in0.0 mm 0.00 in/hr0.0 mm/hr 0.05 in1.3 mm
01:05 PM 71.4°F21.9°C 63.8°F17.7°C 77% 3.0 mph WSW4.8 kmh WSW 8.0 mph12.9 kmh 29.56 in1001.0 mb 0.00 in0.0 mm 0.00 in/hr0.0 mm/hr 0.05 in1.3 mm
01:10 PM 72.3°F22.4°C 63.1°F17.3°C 73% 3.0 mph ESE4.8 kmh ESE 9.0 mph14.5 kmh 29.56 in1001.0 mb 0.00 in0.0 mm 0.00 in/hr0.0 mm/hr 0.05 in1.3 mm
01:15 PM 73.0°F22.8°C 63.4°F17.4°C 72% 1.0 mph SW1.6 kmh SW 10.0 mph16.1 kmh 29.56 in1001.0 mb 0.00 in0.0 mm 0.00 in/hr0.0 mm/hr 0.05 in1.3 mm
01:20 PM 73.2°F22.9°C 62.8°F17.1°C 70% 1.0 mph WSW1.6 kmh WSW 3.0 mph4.8 kmh 29.56 in1001.0 mb 0.00 in0.0 mm 0.00 in/hr0.0 mm/hr 0.05 in1.3 mm
01:25 PM 73.4°F23.0°C 63.8°F17.7°C 72% 4.0 mph ENE6.4 kmh ENE 7.0 mph11.3 kmh 29.55 in1000.7 mb 0.00 in0.0 mm 0.00 in/hr0.0 mm/hr 0.05 in1.3 mm
01:30 PM 73.9°F23.3°C 63.9°F17.7°C 71% Calm Calm 7.0 mph11.3 kmh 29.55 in1000.7 mb 0.00 in0.0 mm 0.00 in/hr0.0 mm/hr 0.05 in1.3 mm
01:35 PM 73.9°F23.3°C 63.1°F17.3°C 69% 2.0 mph WSW3.2 kmh WSW 4.0 mph6.4 kmh 29.55 in1000.7 mb 0.00 in0.0 mm 0.00 in/hr0.0 mm/hr 0.05 in1.3 mm
01:40 PM 74.3°F23.5°C 63.8°F17.7°C 70% 2.0 mph NNE3.2 kmh NNE 7.0 mph11.3 kmh 29.55 in1000.7 mb 0.00 in0.0 mm 0.00 in/hr0.0 mm/hr 0.05 in1.3 mm
01:45 PM 73.5°F23.1°C 62.3°F16.8°C 68% 5.0 mph ENE8.0 kmh ENE 9.0 mph14.5 kmh 29.55 in1000.7 mb 0.00 in0.0 mm 0.00 in/hr0.0 mm/hr 0.05 in1.3 mm
01:50 PM 72.8°F22.7°C 62.0°F16.7°C 69% 2.0 mph WSW3.2 kmh WSW 4.0 mph6.4 kmh 29.55 in1000.7 mb 0.00 in0.0 mm 0.00 in/hr0.0 mm/hr 0.05 in1.3 mm
01:55 PM 73.2°F22.9°C 63.6°F17.6°C 72% 3.0 mph ESE4.8 kmh ESE 6.0 mph9.7 kmh 29.55 in1000.7 mb 0.00 in0.0 mm 0.00 in/hr0.0 mm/hr 0.05 in1.3 mm
02:00 PM 74.1°F23.4°C 63.2°F17.3°C 69% 3.0 mph ENE4.8 kmh ENE 6.0 mph9.7 kmh 29.55 in1000.7 mb 0.00 in0.0 mm 0.00 in/hr0.0 mm/hr 0.05 in1.3 mm
02:05 PM 74.1°F23.4°C 63.2°F17.3°C 69% 3.0 mph ENE4.8 kmh ENE 6.0 mph9.7 kmh 29.55 in1000.7 mb 0.00 in0.0 mm 0.00 in/hr0.0 mm/hr 0.05 in1.3 mm
02:10 PM 73.2°F22.9°C 62.4°F16.9°C 69% 2.0 mph ENE3.2 kmh ENE 6.0 mph9.7 kmh 29.55 in1000.7 mb 0.00 in0.0 mm 0.00 in/hr0.0 mm/hr 0.05 in1.3 mm
02:15 PM 73.2°F22.9°C 63.2°F17.3°C 71% 1.0 mph NNE1.6 kmh NNE 4.0 mph6.4 kmh 29.55 in1000.7 mb 0.00 in0.0 mm 0.00 in/hr0.0 mm/hr 0.05 in1.3 mm
02:20 PM 74.3°F23.5°C 63.0°F17.2°C 68% 2.0 mph WNW3.2 kmh WNW 7.0 mph11.3 kmh 29.56 in1001.0 mb 0.00 in0.0 mm 0.00 in/hr0.0 mm/hr 0.05 in1.3 mm
02:25 PM 75.0°F23.9°C 64.5°F18.1°C 70% 4.0 mph ESE6.4 kmh ESE 13.0 mph20.9 kmh 29.55 in1000.7 mb 0.00 in0.0 mm 0.00 in/hr0.0 mm/hr 0.05 in1.3 mm
02:30 PM 75.2°F24.0°C 62.6°F17.0°C 65% 2.0 mph ENE3.2 kmh ENE 7.0 mph11.3 kmh 29.55 in1000.7 mb 0.00 in0.0 mm 0.00 in/hr0.0 mm/hr 0.05 in1.3 mm
02:35 PM 75.3°F24.1°C 62.7°F17.1°C 65% 8.0 mph SSE12.9 kmh SSE 11.0 mph17.7 kmh 29.54 in1000.3 mb 0.00 in0.0 mm 0.00 in/hr0.0 mm/hr 0.05 in1.3 mm
02:40 PM 75.5°F24.2°C 62.9°F17.2°C 65% 2.0 mph WSW3.2 kmh WSW 8.0 mph12.9 kmh 29.55 in1000.7 mb 0.00 in0.0 mm 0.00 in/hr0.0 mm/hr 0.05 in1.3 mm
02:45 PM 76.1°F24.5°C 63.8°F17.7°C 66% 2.0 mph WSW3.2 kmh WSW 8.0 mph12.9 kmh 29.55 in1000.7 mb 0.00 in0.0 mm 0.00 in/hr0.0 mm/hr 0.05 in1.3 mm
02:50 PM 76.2°F24.6°C 62.7°F17.1°C 63% 1.0 mph SSW1.6 kmh SSW 6.0 mph9.7 kmh 29.56 in1001.0 mb 0.00 in0.0 mm 0.00 in/hr0.0 mm/hr 0.05 in1.3 mm
02:55 PM 76.1°F24.5°C 62.5°F16.9°C 63% 4.0 mph SSW6.4 kmh SSW 9.0 mph14.5 kmh 29.56 in1001.0 mb 0.00 in0.0 mm 0.00 in/hr0.0 mm/hr 0.05 in1.3 mm
03:00 PM 75.7°F24.3°C 62.2°F16.8°C 63% 3.0 mph ESE4.8 kmh ESE 11.0 mph17.7 kmh 29.56 in1001.0 mb 0.00 in0.0 mm 0.00 in/hr0.0 mm/hr 0.05 in1.3 mm
03:05 PM 75.0°F23.9°C 61.5°F16.4°C 63% 1.0 mph SSW1.6 kmh SSW 7.0 mph11.3 kmh 29.56 in1001.0 mb 0.00 in0.0 mm 0.00 in/hr0.0 mm/hr 0.05 in1.3 mm
03:10 PM 74.6°F23.7°C 62.5°F16.9°C 66% 6.0 mph ENE9.7 kmh ENE 15.0 mph24.1 kmh 29.56 in1001.0 mb 0.00 in0.0 mm 0.00 in/hr0.0 mm/hr 0.05 in1.3 mm
03:15 PM 74.6°F23.7°C 62.0°F16.7°C 65% 4.0 mph NNE6.4 kmh NNE 9.0 mph14.5 kmh 29.56 in1001.0 mb 0.00 in0.0 mm 0.00 in/hr0.0 mm/hr 0.05 in1.3 mm
03:20 PM 75.0°F23.9°C 62.4°F16.9°C 65% 3.0 mph WNW4.8 kmh WNW 8.0 mph12.9 kmh 29.56 in1001.0 mb 0.00 in0.0 mm 0.00 in/hr0.0 mm/hr 0.05 in1.3 mm
03:25 PM 75.0°F23.9°C 61.5°F16.4°C 63% 2.0 mph NNE3.2 kmh NNE 11.0 mph17.7 kmh 29.56 in1001.0 mb 0.00 in0.0 mm 0.00 in/hr0.0 mm/hr 0.05 in1.3 mm
03:30 PM 75.2°F24.0°C 61.7°F16.5°C 63% 2.0 mph SSW3.2 kmh SSW 8.0 mph12.9 kmh 29.56 in1001.0 mb 0.00 in0.0 mm 0.00 in/hr0.0 mm/hr 0.05 in1.3 mm
03:35 PM 75.3°F24.1°C 61.8°F16.6°C 63% 4.0 mph NNE6.4 kmh NNE 10.0 mph16.1 kmh 29.56 in1001.0 mb 0.00 in0.0 mm 0.00 in/hr0.0 mm/hr 0.05 in1.3 mm
03:40 PM 75.5°F24.2°C 62.0°F16.7°C 63% 2.0 mph WSW3.2 kmh WSW 8.0 mph12.9 kmh 29.56 in1001.0 mb 0.00 in0.0 mm 0.00 in/hr0.0 mm/hr 0.05 in1.3 mm
03:45 PM 75.3°F24.1°C 62.3°F16.8°C 64% 1.0 mph WNW1.6 kmh WNW 8.0 mph12.9 kmh 29.57 in1001.4 mb 0.00 in0.0 mm 0.00 in/hr0.0 mm/hr 0.05 in1.3 mm
03:50 PM 74.4°F23.6°C 61.9°F16.6°C 65% 8.0 mph WNW12.9 kmh WNW 12.0 mph19.3 kmh 29.60 in1002.4 mb 0.00 in0.0 mm 0.00 in/hr0.0 mm/hr 0.05 in1.3 mm
03:55 PM 72.8°F22.7°C 59.0°F15.0°C 62% 2.0 mph NNW3.2 kmh NNW 8.0 mph12.9 kmh 29.60 in1002.4 mb 0.00 in0.0 mm 0.00 in/hr0.0 mm/hr 0.05 in1.3 mm
04:00 PM 69.2°F20.7°C 60.2°F15.7°C 73% 1.0 mph NNW1.6 kmh NNW 8.0 mph12.9 kmh 29.62 in1003.0 mb 0.01 in0.3 mm 0.01 in/hr0.3 mm/hr 0.06 in1.5 mm
04:05 PM 69.2°F20.7°C 60.2°F15.7°C 73% 1.0 mph NNW1.6 kmh NNW 2.0 mph3.2 kmh 29.62 in1003.0 mb 0.01 in0.3 mm 0.00 in/hr0.0 mm/hr 0.06 in1.5 mm
04:10 PM 66.3°F19.1°C 60.7°F15.9°C 82% 2.0 mph NNW3.2 kmh NNW 2.0 mph3.2 kmh 29.62 in1003.0 mb 0.07 in1.8 mm 0.72 in/hr18.3 mm/hr 0.12 in3.0 mm
04:15 PM 65.4°F18.6°C 60.5°F15.8°C 84% 2.0 mph WNW3.2 kmh WNW 4.0 mph6.4 kmh 29.63 in1003.4 mb 0.08 in2.0 mm 0.12 in/hr3.0 mm/hr 0.13 in3.3 mm
04:20 PM 64.5°F18.1°C 60.9°F16.1°C 88% Calm Calm 4.0 mph6.4 kmh 29.63 in1003.4 mb 0.11 in2.8 mm 0.36 in/hr9.1 mm/hr 0.15 in3.8 mm
04:25 PM 64.4°F18.0°C 61.0°F16.1°C 89% 1.0 mph SSE1.6 kmh SSE 4.0 mph6.4 kmh 29.63 in1003.4 mb 0.13 in3.3 mm 0.24 in/hr6.1 mm/hr 0.18 in4.6 mm
04:30 PM 64.2°F17.9°C 61.2°F16.2°C 90% Calm Calm 3.0 mph4.8 kmh 29.64 in1003.7 mb 0.14 in3.6 mm 0.12 in/hr3.0 mm/hr 0.19 in4.8 mm
04:35 PM 64.2°F17.9°C 61.2°F16.2°C 90% Calm Calm 2.0 mph3.2 kmh 29.64 in1003.7 mb 0.17 in4.3 mm 0.36 in/hr9.1 mm/hr 0.21 in5.3 mm
04:40 PM 64.2°F17.9°C 61.8°F16.6°C 92% Calm Calm 1.0 mph1.6 kmh 29.63 in1003.4 mb 0.17 in4.3 mm 0.00 in/hr0.0 mm/hr 0.21 in5.3 mm
04:45 PM 64.4°F18.0°C 62.3°F16.8°C 93% 1.0 mph ENE1.6 kmh ENE 2.0 mph3.2 kmh 29.64 in1003.7 mb 0.17 in4.3 mm 0.00 in/hr0.0 mm/hr 0.21 in5.3 mm
04:50 PM 64.2°F17.9°C 62.1°F16.7°C 93% Calm Calm 3.0 mph4.8 kmh 29.64 in1003.7 mb 0.17 in4.3 mm 0.00 in/hr0.0 mm/hr 0.21 in5.3 mm
04:55 PM 64.2°F17.9°C 62.1°F16.7°C 93% 1.0 mph ENE1.6 kmh ENE 2.0 mph3.2 kmh 29.64 in1003.7 mb 0.17 in4.3 mm 0.00 in/hr0.0 mm/hr 0.21 in5.3 mm
05:00 PM 64.2°F17.9°C 62.4°F16.9°C 94% 2.0 mph ESE3.2 kmh ESE 3.0 mph4.8 kmh 29.64 in1003.7 mb 0.15 in3.8 mm 0.00 in/hr0.0 mm/hr 0.21 in5.3 mm
05:05 PM 64.4°F18.0°C 62.9°F17.2°C 95% 1.0 mph ESE1.6 kmh ESE 2.0 mph3.2 kmh 29.65 in1004.1 mb 0.17 in4.3 mm 0.24 in/hr6.1 mm/hr 0.22 in5.6 mm
05:10 PM 64.5°F18.1°C 63.1°F17.3°C 95% Calm Calm 3.0 mph4.8 kmh 29.65 in1004.1 mb 0.11 in2.8 mm 0.00 in/hr0.0 mm/hr 0.22 in5.6 mm
05:15 PM 64.5°F18.1°C 63.4°F17.4°C 96% 1.0 mph ENE1.6 kmh ENE 2.0 mph3.2 kmh 29.65 in1004.1 mb 0.09 in2.3 mm 0.00 in/hr0.0 mm/hr 0.22 in5.6 mm
05:20 PM 64.7°F18.2°C 63.5°F17.5°C 96% 2.0 mph SSE3.2 kmh SSE 4.0 mph6.4 kmh 29.65 in1004.1 mb 0.07 in1.8 mm 0.00 in/hr0.0 mm/hr 0.22 in5.6 mm
05:25 PM 64.9°F18.3°C 63.7°F17.6°C 96% Calm Calm 2.0 mph3.2 kmh 29.65 in1004.1 mb 0.05 in1.3 mm 0.00 in/hr0.0 mm/hr 0.22 in5.6 mm
05:30 PM 64.9°F18.3°C 63.7°F17.6°C 96% 1.0 mph NNE1.6 kmh NNE 3.0 mph4.8 kmh 29.65 in1004.1 mb 0.04 in1.0 mm 0.00 in/hr0.0 mm/hr 0.22 in5.6 mm
05:35 PM 64.9°F18.3°C 63.7°F17.6°C 96% Calm Calm 7.0 mph11.3 kmh 29.65 in1004.1 mb 0.01 in0.3 mm 0.00 in/hr0.0 mm/hr 0.22 in5.6 mm
05:40 PM 65.1°F18.4°C 64.2°F17.9°C 97% 1.0 mph NW1.6 kmh NW 4.0 mph6.4 kmh 29.65 in1004.1 mb 0.01 in0.3 mm 0.00 in/hr0.0 mm/hr 0.22 in5.6 mm
05:45 PM 65.4°F18.6°C 64.6°F18.1°C 97% 1.0 mph WNW1.6 kmh WNW 3.0 mph4.8 kmh 29.66 in1004.4 mb 0.01 in0.3 mm 0.00 in/hr0.0 mm/hr 0.22 in5.6 mm
05:50 PM 65.4°F18.6°C 64.6°F18.1°C 97% 1.0 mph WSW1.6 kmh WSW 8.0 mph12.9 kmh 29.66 in1004.4 mb 0.01 in0.3 mm 0.00 in/hr0.0 mm/hr 0.22 in5.6 mm
05:55 PM 65.4°F18.6°C 64.6°F18.1°C 97% 2.0 mph ESE3.2 kmh ESE 3.0 mph4.8 kmh 29.66 in1004.4 mb 0.01 in0.3 mm 0.00 in/hr0.0 mm/hr 0.22 in5.6 mm
06:00 PM 65.4°F18.6°C 64.6°F18.1°C 97% Calm Calm 5.0 mph8.0 kmh 29.67 in1004.7 mb 0.01 in0.3 mm 0.00 in/hr0.0 mm/hr 0.22 in5.6 mm
06:05 PM 65.4°F18.6°C 64.6°F18.1°C 97% Calm Calm 2.0 mph3.2 kmh 29.67 in1004.7 mb 0.00 in0.0 mm 0.00 in/hr0.0 mm/hr 0.22 in5.6 mm
06:10 PM 65.1°F18.4°C 64.2°F17.9°C 97% 4.0 mph ENE6.4 kmh ENE 10.0 mph16.1 kmh 29.67 in1004.7 mb 0.00 in0.0 mm 0.00 in/hr0.0 mm/hr 0.22 in5.6 mm
06:15 PM 64.9°F18.3°C 64.0°F17.8°C 97% Calm Calm 8.0 mph12.9 kmh 29.67 in1004.7 mb 0.00 in0.0 mm 0.00 in/hr0.0 mm/hr 0.22 in5.6 mm
06:20 PM 64.9°F18.3°C 64.0°F17.8°C 97% 1.0 mph ESE1.6 kmh ESE 4.0 mph6.4 kmh 29.67 in1004.7 mb 0.00 in0.0 mm 0.00 in/hr0.0 mm/hr 0.22 in5.6 mm
06:25 PM 64.9°F18.3°C 64.0°F17.8°C 97% 1.0 mph WSW1.6 kmh WSW 4.0 mph6.4 kmh 29.68 in1005.1 mb 0.00 in0.0 mm 0.00 in/hr0.0 mm/hr 0.22 in5.6 mm
06:30 PM 64.7°F18.2°C 63.5°F17.5°C 96% 1.0 mph SSW1.6 kmh SSW 5.0 mph8.0 kmh 29.68 in1005.1 mb 0.00 in0.0 mm 0.00 in/hr0.0 mm/hr 0.22 in5.6 mm
06:35 PM 64.7°F18.2°C 63.5°F17.5°C 96% 2.0 mph ENE3.2 kmh ENE 4.0 mph6.4 kmh 29.68 in1005.1 mb 0.00 in0.0 mm 0.00 in/hr0.0 mm/hr 0.22 in5.6 mm
06:40 PM 64.7°F18.2°C 62.9°F17.2°C 94% 2.0 mph WNW3.2 kmh WNW 7.0 mph11.3 kmh 29.69 in1005.4 mb 0.00 in0.0 mm 0.00 in/hr0.0 mm/hr 0.22 in5.6 mm
06:45 PM 64.7°F18.2°C 62.3°F16.8°C 92% 1.0 mph NNE1.6 kmh NNE 4.0 mph6.4 kmh 29.69 in1005.4 mb 0.00 in0.0 mm 0.00 in/hr0.0 mm/hr 0.22 in5.6 mm
06:50 PM 64.7°F18.2°C 61.7°F16.5°C 90% 1.0 mph ESE1.6 kmh ESE 5.0 mph8.0 kmh 29.69 in1005.4 mb 0.00 in0.0 mm 0.00 in/hr0.0 mm/hr 0.22 in5.6 mm
06:55 PM 64.5°F18.1°C 61.2°F16.2°C 89% 2.0 mph SSE3.2 kmh SSE 6.0 mph9.7 kmh 29.69 in1005.4 mb 0.00 in0.0 mm 0.00 in/hr0.0 mm/hr 0.22 in5.6 mm
07:00 PM 64.5°F18.1°C 61.2°F16.2°C 89% 1.0 mph ESE1.6 kmh ESE 5.0 mph8.0 kmh 29.70 in1005.8 mb 0.00 in0.0 mm 0.00 in/hr0.0 mm/hr 0.22 in5.6 mm
07:05 PM 64.5°F18.1°C 60.6°F15.9°C 87% Calm Calm 4.0 mph6.4 kmh 29.70 in1005.8 mb 0.00 in0.0 mm 0.00 in/hr0.0 mm/hr 0.22 in5.6 mm
07:10 PM 64.5°F18.1°C 60.6°F15.9°C 87% 1.0 mph SSW1.6 kmh SSW 4.0 mph6.4 kmh 29.70 in1005.8 mb 0.00 in0.0 mm 0.00 in/hr0.0 mm/hr 0.22 in5.6 mm
07:15 PM 64.4°F18.0°C 60.4°F15.8°C 87% 2.0 mph NNE3.2 kmh NNE 4.0 mph6.4 kmh 29.71 in1006.1 mb 0.00 in0.0 mm 0.00 in/hr0.0 mm/hr 0.22 in5.6 mm
07:20 PM 64.4°F18.0°C 60.4°F15.8°C 87% Calm Calm 5.0 mph8.0 kmh 29.70 in1005.8 mb 0.00 in0.0 mm 0.00 in/hr0.0 mm/hr 0.22 in5.6 mm
07:25 PM 64.4°F18.0°C 60.7°F15.9°C 88% 2.0 mph SSE3.2 kmh SSE 5.0 mph8.0 kmh 29.71 in1006.1 mb 0.00 in0.0 mm 0.00 in/hr0.0 mm/hr 0.22 in5.6 mm
07:30 PM 64.2°F17.9°C 60.2°F15.7°C 87% 3.0 mph S4.8 kmh S 4.0 mph6.4 kmh 29.71 in1006.1 mb 0.00 in0.0 mm 0.00 in/hr0.0 mm/hr 0.22 in5.6 mm
07:35 PM 64.2°F17.9°C 60.5°F15.8°C 88% 1.0 mph ESE1.6 kmh ESE 2.0 mph3.2 kmh 29.71 in1006.1 mb 0.00 in0.0 mm 0.00 in/hr0.0 mm/hr 0.22 in5.6 mm
07:40 PM 64.0°F17.8°C 60.7°F15.9°C 89% 1.0 mph WNW1.6 kmh WNW 3.0 mph4.8 kmh 29.71 in1006.1 mb 0.00 in0.0 mm 0.00 in/hr0.0 mm/hr 0.22 in5.6 mm
07:45 PM 63.8°F17.7°C 60.2°F15.7°C 88% 4.0 mph SSE6.4 kmh SSE 7.0 mph11.3 kmh 29.72 in1006.4 mb 0.00 in0.0 mm 0.00 in/hr0.0 mm/hr 0.22 in5.6 mm
07:50 PM 64.2°F17.9°C 59.9°F15.5°C 86% 2.0 mph NNW3.2 kmh NNW 4.0 mph6.4 kmh 29.72 in1006.4 mb 0.00 in0.0 mm 0.00 in/hr0.0 mm/hr 0.22 in5.6 mm
07:55 PM 64.0°F17.8°C 59.7°F15.4°C 86% 1.0 mph NNE1.6 kmh NNE 4.0 mph6.4 kmh 29.72 in1006.4 mb 0.00 in0.0 mm 0.00 in/hr0.0 mm/hr 0.22 in5.6 mm
08:00 PM 64.0°F17.8°C 59.7°F15.4°C 86% Calm Calm 2.0 mph3.2 kmh 29.72 in1006.4 mb 0.00 in0.0 mm 0.00 in/hr0.0 mm/hr 0.22 in5.6 mm
08:05 PM 64.0°F17.8°C 59.7°F15.4°C 86% Calm Calm 1.0 mph1.6 kmh 29.72 in1006.4 mb 0.00 in0.0 mm 0.00 in/hr0.0 mm/hr 0.22 in5.6 mm
08:10 PM 63.6°F17.6°C 59.7°F15.4°C 87% 1.0 mph ENE1.6 kmh ENE 8.0 mph12.9 kmh 29.73 in1006.8 mb 0.00 in0.0 mm 0.00 in/hr0.0 mm/hr 0.22 in5.6 mm
08:15 PM 63.6°F17.6°C 59.4°F15.2°C 86% 2.0 mph ENE3.2 kmh ENE 3.0 mph4.8 kmh 29.73 in1006.8 mb 0.00 in0.0 mm 0.00 in/hr0.0 mm/hr 0.22 in5.6 mm
08:20 PM 63.6°F17.6°C 59.4°F15.2°C 86% 3.0 mph WNW4.8 kmh WNW 5.0 mph8.0 kmh 29.73 in1006.8 mb 0.00 in0.0 mm 0.00 in/hr0.0 mm/hr 0.22 in5.6 mm
08:25 PM 63.6°F17.6°C 59.4°F15.2°C 86% 2.0 mph NNW3.2 kmh NNW 5.0 mph8.0 kmh 29.73 in1006.8 mb 0.00 in0.0 mm 0.00 in/hr0.0 mm/hr 0.22 in5.6 mm
08:30 PM 63.5°F17.5°C 59.2°F15.1°C 86% 2.0 mph SSE3.2 kmh SSE 4.0 mph6.4 kmh 29.74 in1007.1 mb 0.00 in0.0 mm 0.00 in/hr0.0 mm/hr 0.22 in5.6 mm
08:35 PM 63.5°F17.5°C 58.9°F14.9°C 85% 2.0 mph SSE3.2 kmh SSE 3.0 mph4.8 kmh 29.74 in1007.1 mb 0.00 in0.0 mm 0.00 in/hr0.0 mm/hr 0.22 in5.6 mm
08:40 PM 63.5°F17.5°C 58.9°F14.9°C 85% 2.0 mph NNW3.2 kmh NNW 9.0 mph14.5 kmh 29.74 in1007.1 mb 0.00 in0.0 mm 0.00 in/hr0.0 mm/hr 0.22 in5.6 mm
08:45 PM 63.5°F17.5°C 58.5°F14.7°C 84% 1.0 mph WSW1.6 kmh WSW 7.0 mph11.3 kmh 29.75 in1007.5 mb 0.00 in0.0 mm 0.00 in/hr0.0 mm/hr 0.22 in5.6 mm
08:50 PM 63.3°F17.4°C 58.3°F14.6°C 84% 2.0 mph ENE3.2 kmh ENE 4.0 mph6.4 kmh 29.75 in1007.5 mb 0.00 in0.0 mm 0.00 in/hr0.0 mm/hr 0.22 in5.6 mm
08:55 PM 63.3°F17.4°C 58.3°F14.6°C 84% 3.0 mph NNE4.8 kmh NNE 4.0 mph6.4 kmh 29.75 in1007.5 mb 0.00 in0.0 mm 0.00 in/hr0.0 mm/hr 0.22 in5.6 mm
09:00 PM 63.3°F17.4°C 58.3°F14.6°C 84% 2.0 mph SSW3.2 kmh SSW 3.0 mph4.8 kmh 29.75 in1007.5 mb 0.00 in0.0 mm 0.00 in/hr0.0 mm/hr 0.22 in5.6 mm
09:05 PM 63.1°F17.3°C 57.8°F14.3°C 83% Calm Calm 8.0 mph12.9 kmh 29.75 in1007.5 mb 0.00 in0.0 mm 0.00 in/hr0.0 mm/hr 0.22 in5.6 mm
09:10 PM 63.1°F17.3°C 58.2°F14.6°C 84% 2.0 mph ESE3.2 kmh ESE 4.0 mph6.4 kmh 29.75 in1007.5 mb 0.00 in0.0 mm 0.00 in/hr0.0 mm/hr 0.22 in5.6 mm
09:15 PM 62.9°F17.2°C 58.0°F14.4°C 84% 2.0 mph ESE3.2 kmh ESE 5.0 mph8.0 kmh 29.76 in1007.8 mb 0.00 in0.0 mm 0.00 in/hr0.0 mm/hr 0.22 in5.6 mm
09:20 PM 62.9°F17.2°C 58.0°F14.4°C 84% 2.0 mph NNE3.2 kmh NNE 4.0 mph6.4 kmh 29.76 in1007.8 mb 0.00 in0.0 mm 0.00 in/hr0.0 mm/hr 0.22 in5.6 mm
09:25 PM 62.9°F17.2°C 58.0°F14.4°C 84% 1.0 mph SSE1.6 kmh SSE 4.0 mph6.4 kmh 29.76 in1007.8 mb 0.00 in0.0 mm 0.00 in/hr0.0 mm/hr 0.22 in5.6 mm
09:30 PM 62.9°F17.2°C 58.0°F14.4°C 84% Calm Calm 2.0 mph3.2 kmh 29.77 in1008.1 mb 0.00 in0.0 mm 0.00 in/hr0.0 mm/hr 0.22 in5.6 mm
09:35 PM 62.9°F17.2°C 58.0°F14.4°C 84% Calm Calm 3.0 mph4.8 kmh 29.77 in1008.1 mb 0.00 in0.0 mm 0.00 in/hr0.0 mm/hr 0.22 in5.6 mm
09:40 PM 62.9°F17.2°C 58.3°F14.6°C 85% 1.0 mph SSW1.6 kmh SSW 3.0 mph4.8 kmh 29.78 in1008.5 mb 0.00 in0.0 mm 0.00 in/hr0.0 mm/hr 0.22 in5.6 mm
09:45 PM 62.7°F17.1°C 58.1°F14.5°C 85% 2.0 mph NNE3.2 kmh NNE 5.0 mph8.0 kmh 29.78 in1008.5 mb 0.00 in0.0 mm 0.00 in/hr0.0 mm/hr 0.22 in5.6 mm
09:51 PM 62.7°F17.1°C 58.1°F14.5°C 85% Calm Calm 2.0 mph3.2 kmh 29.78 in1008.5 mb 0.00 in0.0 mm 0.00 in/hr0.0 mm/hr 0.22 in5.6 mm
09:55 PM 62.7°F17.1°C 58.1°F14.5°C 85% 1.0 mph NNE1.6 kmh NNE 4.0 mph6.4 kmh 29.78 in1008.5 mb 0.00 in0.0 mm 0.00 in/hr0.0 mm/hr 0.22 in5.6 mm
10:00 PM 62.6°F17.0°C 58.0°F14.4°C 85% 3.0 mph NNE4.8 kmh NNE 6.0 mph9.7 kmh 29.78 in1008.5 mb 0.00 in0.0 mm 0.00 in/hr0.0 mm/hr 0.22 in5.6 mm
10:05 PM 62.4°F16.9°C 57.8°F14.3°C 85% 2.0 mph SSW3.2 kmh SSW 9.0 mph14.5 kmh 29.79 in1008.8 mb 0.00 in0.0 mm 0.00 in/hr0.0 mm/hr 0.22 in5.6 mm
10:10 PM 62.4°F16.9°C 57.5°F14.2°C 84% 2.0 mph NNE3.2 kmh NNE 4.0 mph6.4 kmh 29.79 in1008.8 mb 0.00 in0.0 mm 0.00 in/hr0.0 mm/hr 0.22 in5.6 mm
10:15 PM 62.4°F16.9°C 57.5°F14.2°C 84% 1.0 mph NNE1.6 kmh NNE 3.0 mph4.8 kmh 29.79 in1008.8 mb 0.00 in0.0 mm 0.00 in/hr0.0 mm/hr 0.22 in5.6 mm
10:20 PM 62.4°F16.9°C 57.5°F14.2°C 84% 1.0 mph SSE1.6 kmh SSE 2.0 mph3.2 kmh 29.79 in1008.8 mb 0.00 in0.0 mm 0.00 in/hr0.0 mm/hr 0.22 in5.6 mm
10:25 PM 62.4°F16.9°C 57.8°F14.3°C 85% Calm Calm 3.0 mph4.8 kmh 29.79 in1008.8 mb 0.00 in0.0 mm 0.00 in/hr0.0 mm/hr 0.22 in5.6 mm
10:30 PM 62.2°F16.8°C 57.9°F14.4°C 86% 1.0 mph ESE1.6 kmh ESE 3.0 mph4.8 kmh 29.80 in1009.1 mb 0.00 in0.0 mm 0.00 in/hr0.0 mm/hr 0.22 in5.6 mm
10:35 PM 62.2°F16.8°C 57.9°F14.4°C 86% 1.0 mph NNE1.6 kmh NNE 2.0 mph3.2 kmh 29.80 in1009.1 mb 0.00 in0.0 mm 0.00 in/hr0.0 mm/hr 0.22 in5.6 mm
10:40 PM 62.0°F16.7°C 58.1°F14.5°C 87% 2.0 mph WNW3.2 kmh WNW 3.0 mph4.8 kmh 29.80 in1009.1 mb 0.00 in0.0 mm 0.00 in/hr0.0 mm/hr 0.22 in5.6 mm
10:45 PM 62.0°F16.7°C 58.1°F14.5°C 87% 2.0 mph WSW3.2 kmh WSW 4.0 mph6.4 kmh 29.80 in1009.1 mb 0.00 in0.0 mm 0.00 in/hr0.0 mm/hr 0.22 in5.6 mm
10:50 PM 62.0°F16.7°C 57.8°F14.3°C 86% 2.0 mph SSE3.2 kmh SSE 5.0 mph8.0 kmh 29.80 in1009.1 mb 0.00 in0.0 mm 0.00 in/hr0.0 mm/hr 0.22 in5.6 mm
10:55 PM 62.0°F16.7°C 57.8°F14.3°C 86% 2.0 mph ESE3.2 kmh ESE 4.0 mph6.4 kmh 29.80 in1009.1 mb 0.00 in0.0 mm 0.00 in/hr0.0 mm/hr 0.22 in5.6 mm
11:00 PM 61.8°F16.6°C 57.3°F14.1°C 85% 4.0 mph SSE6.4 kmh SSE 5.0 mph8.0 kmh 29.80 in1009.1 mb 0.00 in0.0 mm 0.00 in/hr0.0 mm/hr 0.22 in5.6 mm
11:05 PM 61.8°F16.6°C 57.3°F14.1°C 85% 1.0 mph NNE1.6 kmh NNE 3.0 mph4.8 kmh 29.81 in1009.5 mb 0.00 in0.0 mm 0.00 in/hr0.0 mm/hr 0.22 in5.6 mm
11:10 PM 61.8°F16.6°C 57.3°F14.1°C 85% Calm Calm 2.0 mph3.2 kmh 29.81 in1009.5 mb 0.00 in0.0 mm 0.00 in/hr0.0 mm/hr 0.22 in5.6 mm
11:15 PM 61.7°F16.5°C 56.8°F13.8°C 84% 3.0 mph ESE4.8 kmh ESE 5.0 mph8.0 kmh 29.81 in1009.5 mb 0.00 in0.0 mm 0.00 in/hr0.0 mm/hr 0.22 in5.6 mm
11:20 PM 61.7°F16.5°C 56.8°F13.8°C 84% 1.0 mph ENE1.6 kmh ENE 4.0 mph6.4 kmh 29.81 in1009.5 mb 0.00 in0.0 mm 0.00 in/hr0.0 mm/hr 0.22 in5.6 mm
11:25 PM 61.7°F16.5°C 56.8°F13.8°C 84% Calm Calm 4.0 mph6.4 kmh 29.81 in1009.5 mb 0.00 in0.0 mm 0.00 in/hr0.0 mm/hr 0.22 in5.6 mm
11:30 PM 61.7°F16.5°C 56.8°F13.8°C 84% 1.0 mph ENE1.6 kmh ENE 2.0 mph3.2 kmh 29.81 in1009.5 mb 0.00 in0.0 mm 0.00 in/hr0.0 mm/hr 0.22 in5.6 mm
11:35 PM 61.7°F16.5°C 57.1°F13.9°C 85% Calm Calm 2.0 mph3.2 kmh 29.81 in1009.5 mb 0.00 in0.0 mm 0.00 in/hr0.0 mm/hr 0.22 in5.6 mm
11:40 PM 61.5°F16.4°C 56.9°F13.8°C 85% Calm Calm 2.0 mph3.2 kmh 29.82 in1009.8 mb 0.00 in0.0 mm 0.00 in/hr0.0 mm/hr 0.22 in5.6 mm
11:45 PM 61.5°F16.4°C 56.9°F13.8°C 85% Calm Calm 2.0 mph3.2 kmh 29.81 in1009.5 mb 0.00 in0.0 mm 0.00 in/hr0.0 mm/hr 0.22 in5.6 mm
11:50 PM 61.3°F16.3°C 56.7°F13.7°C 85% Calm Calm 1.0 mph1.6 kmh 29.81 in1009.5 mb 0.00 in0.0 mm 0.00 in/hr0.0 mm/hr 0.22 in5.6 mm
11:55 PM 61.3°F16.3°C 56.7°F13.7°C 85% 1.0 mph SSE1.6 kmh SSE 2.0 mph3.2 kmh 29.81 in1009.5 mb 0.00 in0.0 mm 0.00 in/hr0.0 mm/hr 0.22 in5.6 mm